Time;durP1;ratioP1;P1;durP2;ratioP2;P2;SDS_P1;SDS_P2;PMS_P1;PMS_P2;Temp;Humidity;BMP_temperature;BMP_pressure;BME280_temperature;BME280_humidity;BME280_pressure;Samples;Min_cycle;Max_cycle;Signal;HPM_P1;HPM_P2
2022/08/23 00:02:08;;;;;;;13.32;6.20;;;;;;;23.57;70.60;100093.75;5082540;28;20142;-90
2022/08/23 00:04:45;;;;;;;13.55;6.30;;;;;;;23.75;70.85;100122.78;5110697;28;20047;-93
2022/08/23 00:07:12;;;;;;;13.18;6.70;;;;;;;23.73;70.77;100127.66;5094718;28;20034;-92
2022/08/23 00:09:40;;;;;;;16.88;6.30;;;;;;;23.68;70.57;100115.81;5083973;28;20039;-91
2022/08/23 00:12:17;;;;;;;17.50;6.50;;;;;;;23.67;71.06;100114.16;5073440;28;20126;-93
2022/08/23 00:14:47;;;;;;;12.60;6.00;;;;;;;23.75;70.91;100122.78;5095601;28;20468;-93
2022/08/23 00:17:17;;;;;;;14.63;6.47;;;;;;;23.80;70.75;100130.22;5098486;28;20032;-92
2022/08/23 00:19:43;;;;;;;14.80;6.30;;;;;;;23.64;71.17;100129.22;5097635;28;20373;-91
2022/08/23 00:22:13;;;;;;;12.38;6.43;;;;;;;23.52;71.68;100125.81;5060173;28;20139;-92
2022/08/23 00:24:39;;;;;;;13.13;6.97;;;;;;;23.39;70.90;100114.19;5073697;28;20079;-92
2022/08/23 00:27:15;;;;;;;13.63;7.10;;;;;;;23.34;70.59;100111.41;5106845;28;20447;-93
2022/08/23 00:29:46;;;;;;;;;;;;;;;23.52;70.80;100156.00;5079955;28;20150;-93
2022/08/23 00:32:14;;;;;;;14.98;6.40;;;;;;;23.38;71.21;100139.94;5091959;28;19912;-93
2022/08/23 00:34:41;;;;;;;15.13;7.20;;;;;;;23.28;71.96;100148.06;5077014;28;20126;-93
2022/08/23 00:37:12;;;;;;;12.40;7.30;;;;;;;23.20;71.82;100154.00;5095454;28;20483;-94
2022/08/23 00:39:38;;;;;;;13.40;6.97;;;;;;;23.10;71.54;100127.31;5094484;28;20040;-94
2022/08/23 00:47:53;;;;;;;14.80;6.65;;;;;;;22.96;71.55;100139.72;5095728;28;20048;-93
2022/08/23 00:50:27;;;;;;;11.40;7.30;;;;;;;23.05;71.71;100164.81;5087835;28;20043;-93
2022/08/23 00:53:19;;;;;;;13.23;7.22;;;;;;;23.05;71.57;100156.59;5088421;28;20030;-95
2022/08/23 00:55:45;;;;;;;11.77;7.13;;;;;;;22.90;71.58;100155.28;5078561;28;20054;-92
2022/08/23 00:58:14;;;;;;;13.85;7.20;;;;;;;22.83;71.59;100143.69;5062276;28;20438;-93
2022/08/23 01:00:41;;;;;;;15.93;6.93;;;;;;;22.77;70.98;100129.06;5106829;28;20510;-92
2022/08/23 01:03:07;;;;;;;20.98;8.02;;;;;;;22.59;71.38;100139.50;5084845;28;20553;-93
2022/08/23 01:06:04;;;;;;;13.80;6.90;;;;;;;22.40;71.83;100133.50;5062672;28;20535;-94
2022/08/23 01:08:31;;;;;;;17.13;7.00;;;;;;;22.30;71.33;100128.72;5100515;28;20369;-94
2022/08/23 01:11:11;;;;;;;15.70;6.68;;;;;;;22.19;71.58;100126.84;5095891;28;20588;-93
2022/08/23 01:13:47;;;;;;;16.75;7.18;;;;;;;22.18;71.65;100133.44;5071797;28;20055;-91
2022/08/23 01:16:42;;;;;;;16.77;6.75;;;;;;;22.17;71.84;100137.22;5075595;28;20028;-93
2022/08/23 01:19:13;;;;;;;18.05;6.70;;;;;;;22.18;72.23;100156.16;5103247;28;20044;-91
2022/08/23 01:21:55;;;;;;;17.63;7.07;;;;;;;22.21;72.23;100168.53;5090360;28;20036;-91
2022/08/23 01:24:22;;;;;;;17.27;7.18;;;;;;;22.11;71.86;100141.81;5090247;28;20108;-91
2022/08/23 01:26:48;;;;;;;13.95;6.65;;;;;;;22.04;72.17;100141.97;5094596;28;20118;-92
2022/08/23 01:29:25;;;;;;;22.40;7.10;;;;;;;22.11;72.45;100164.53;5074202;28;20118;-93
2022/08/23 01:31:54;;;;;;;19.52;6.47;;;;;;;22.19;71.99;100162.44;5095859;28;20035;-93
2022/08/23 01:34:24;;;;;;;26.25;7.32;;;;;;;22.05;71.62;100138.13;5078010;28;20086;-90
2022/08/23 01:37:24;;;;;;;26.30;7.10;;;;;;;22.20;71.66;100155.91;5100989;28;20491;-95
2022/08/23 01:50:39;;;;;;;14.10;6.68;;;;;;;22.13;72.11;100167.03;5086190;28;20076;-96
2022/08/23 04:58:57;;;;;;;15.27;7.40;;;;;;;22.88;76.68;100267.06;5690624;23;20132;-91
2022/08/23 05:01:24;;;;;;;18.40;8.05;;;;;;;23.14;76.58;100297.63;5002972;28;20037;-91
2022/08/23 05:03:55;;;;;;;16.13;7.63;;;;;;;23.23;75.88;100285.16;5040553;28;20107;-90
2022/08/23 05:06:25;;;;;;;13.88;7.47;;;;;;;23.41;75.40;100302.34;5052178;28;20065;-92
2022/08/23 05:12:56;;;;;;;13.45;6.85;;;;;;;23.94;73.60;100312.63;5025435;28;20045;-94
2022/08/23 05:19:30;;;;;;;14.52;6.78;;;;;;;24.35;71.95;100306.69;5017038;28;20123;-92
2022/08/23 05:22:10;;;;;;;12.57;6.38;;;;;;;24.42;71.21;100293.59;5019766;28;20030;-93
2022/08/23 05:25:20;;;;;;;12.38;6.43;;;;;;;24.55;70.95;100315.16;5008150;28;20100;-93
2022/08/23 05:28:12;;;;;;;11.30;6.18;;;;;;;24.83;70.24;100310.44;5030615;28;20037;-93
2022/08/23 05:34:18;;;;;;;12.25;6.53;;;;;;;25.09;68.76;100277.59;5024237;28;20052;-95
2022/08/23 05:37:39;;;;;;;17.52;6.65;;;;;;;25.38;68.38;100313.81;5025144;28;20037;-92
2022/08/23 05:44:29;;;;;;;16.00;6.90;;;;;;;25.97;66.85;100316.28;5020445;28;20049;-92
2022/08/23 05:47:13;;;;;;;22.92;7.72;;;;;;;26.03;65.77;100286.81;5019313;28;20040;-93
2022/08/23 05:49:43;;;;;;;22.95;7.88;;;;;;;26.43;65.50;100310.81;4998167;28;20040;-94
2022/08/23 05:52:12;;;;;;;15.02;6.80;;;;;;;26.67;64.06;100291.84;5050831;28;20470;-93
2022/08/23 05:55:18;;;;;;;25.90;7.47;;;;;;;27.15;62.87;100303.31;4991840;28;20033;-91
2022/08/23 06:01:09;;;;;;;15.52;6.93;;;;;;;28.04;60.44;100307.41;5046914;28;20043;-94
2022/08/23 06:03:37;;;;;;;17.63;7.00;;;;;;;28.41;58.86;100299.41;5011694;28;20302;-92
2022/08/23 06:09:54;;;;;;;22.35;7.38;;;;;;;28.87;57.61;100300.13;5043924;28;20151;-93
2022/08/23 06:12:33;;;;;;;21.88;6.65;;;;;;;28.82;56.91;100268.66;5021746;28;20033;-93
2022/08/23 06:19:03;;;;;;;20.33;6.38;;;;;;;29.21;56.19;100309.19;5039374;28;20040;-94
2022/08/23 06:28:20;;;;;;;23.05;6.30;;;;;;;29.91;53.77;100288.41;5038634;28;20075;-92
2022/08/23 06:30:49;;;;;;;23.83;7.15;;;;;;;30.04;53.63;100287.66;5043520;28;20032;-95
2022/08/23 06:33:21;;;;;;;17.63;5.82;;;;;;;30.34;52.76;100313.28;5043585;28;20044;-93
2022/08/23 06:36:05;;;;;;;19.45;5.95;;;;;;;30.16;53.00;100289.97;5018433;28;20140;-93
2022/08/23 07:11:20;;;;;;;15.32;5.78;;;;;;;29.60;54.58;100337.84;5057977;28;20052;-91
2022/08/23 07:13:48;;;;;;;20.75;6.18;;;;;;;29.53;54.31;100324.34;5053473;28;20104;-89
2022/08/23 07:16:16;;;;;;;15.85;6.00;;;;;;;29.52;54.97;100325.44;5047023;28;20112;-92
2022/08/23 07:18:45;;;;;;;22.25;6.30;;;;;;;29.57;54.97;100325.41;5030553;28;20072;-95
2022/08/23 07:21:11;;;;;;;22.10;6.13;;;;;;;29.55;54.71;100335.97;5064028;28;20053;-93
2022/08/23 07:23:39;;;;;;;24.25;6.65;;;;;;;30.09;53.11;100331.94;5027706;28;20041;-94
2022/08/23 07:26:09;;;;;;;20.75;6.45;;;;;;;30.13;53.49;100323.81;5047741;28;20053;-91
2022/08/23 07:28:44;;;;;;;17.98;6.10;;;;;;;30.53;52.13;100331.84;5005523;28;20033;-92
2022/08/23 07:31:19;;;;;;;22.63;5.85;;;;;;;30.96;50.67;100335.28;5065327;28;20044;-93
2022/08/23 07:33:47;;;;;;;22.98;5.72;;;;;;;31.21;50.48;100325.66;5041673;28;20113;-95
2022/08/23 07:36:40;;;;;;;35.55;6.45;;;;;;;30.85;51.49;100328.28;5037742;28;20053;-93
2022/08/23 07:45:54;;;;;;;24.10;5.07;;;;;;;31.38;49.20;100336.16;5068524;28;20033;-93
2022/08/23 07:48:54;;;;;;;24.30;6.00;;;;;;;31.69;47.81;100347.50;5038149;28;20041;-88
2022/08/23 07:51:19;;;;;;;34.53;5.90;;;;;;;31.95;46.84;100344.16;5032506;28;20045;-86
2022/08/23 07:53:46;;;;;;;25.27;5.55;;;;;;;32.28;46.03;100324.53;5069677;28;20040;-88
2022/08/23 07:59:34;;;;;;;23.27;5.15;;;;;;;32.33;45.20;100316.88;5054762;28;20475;-89
2022/08/23 08:08:55;;;;;;;22.15;5.45;;;;;;;32.80;43.97;100336.03;5056418;28;20057;-88
2022/08/23 08:11:23;;;;;;;25.20;5.50;;;;;;;32.41;45.21;100337.56;5020145;28;20111;-87
2022/08/23 08:13:49;;;;;;;20.55;4.97;;;;;;;32.84;43.55;100330.69;5054331;28;20036;-87
2022/08/23 08:16:26;;;;;;;21.35;5.43;;;;;;;32.92;44.18;100336.31;5056207;28;20043;-87
2022/08/23 08:18:56;;;;;;;21.42;5.13;;;;;;;33.36;42.89;100337.34;5033230;28;20048;-88
2022/08/23 08:21:23;;;;;;;25.42;5.10;;;;;;;33.97;41.30;100340.28;5046243;28;20037;-88
2022/08/23 08:23:50;;;;;;;16.33;4.85;;;;;;;33.97;40.37;100328.34;5033516;28;20705;-87
2022/08/23 08:26:17;;;;;;;13.52;4.28;;;;;;;34.44;39.70;100336.91;5053430;28;20041;-87
2022/08/23 08:28:46;;;;;;;20.17;5.00;;;;;;;34.86;38.42;100309.25;5053722;28;20037;-87
2022/08/23 08:31:19;;;;;;;25.58;5.53;;;;;;;33.90;40.05;100286.19;5041937;28;20415;-86
2022/08/23 08:33:46;;;;;;;21.23;5.22;;;;;;;34.31;39.73;100310.81;5034661;28;20064;-88
2022/08/23 08:36:45;;;;;;;22.00;5.05;;;;;;;34.31;39.82;100310.00;5059400;28;20083;-88
2022/08/23 08:39:17;;;;;;;19.77;4.80;;;;;;;34.54;38.59;100291.09;5049569;28;20045;-86
2022/08/23 08:42:17;;;;;;;16.48;4.38;;;;;;;34.76;36.13;100299.28;5053694;28;20079;-87
2022/08/23 08:44:46;;;;;;;19.92;5.00;;;;;;;35.20;36.11;100288.81;5022610;28;20036;-86
2022/08/23 08:47:57;;;;;;;19.20;4.63;;;;;;;35.82;35.61;100289.28;5056537;28;20409;-87
2022/08/23 08:50:32;;;;;;;14.70;4.32;;;;;;;36.53;34.70;100294.78;5036134;28;20040;-86
2022/08/23 08:53:16;;;;;;;20.40;4.90;;;;;;;36.57;35.07;100292.09;5039073;28;20060;-85
2022/08/23 08:55:49;;;;;;;21.88;4.93;;;;;;;36.29;35.65;100298.31;5074050;28;20165;-86
2022/08/23 08:58:24;;;;;;;25.77;5.07;;;;;;;37.07;34.57;100293.06;5055428;28;20046;-86
2022/08/23 09:00:58;;;;;;;20.70;4.80;;;;;;;37.07;34.47;100304.28;5020125;28;20037;-86
2022/08/23 09:03:24;;;;;;;25.60;4.55;;;;;;;37.63;33.93;100314.91;5057108;28;20116;-90
2022/08/23 09:06:16;;;;;;;21.73;4.60;;;;;;;37.81;34.46;100305.06;5031714;28;20051;-89
2022/08/23 09:09:00;;;;;;;20.57;5.33;;;;;;;37.01;36.83;100308.44;5063266;28;20033;-86
2022/08/23 09:11:32;;;;;;;19.88;5.38;;;;;;;38.06;35.46;100330.31;5041949;28;20529;-85
2022/08/23 09:14:25;;;;;;;23.65;5.50;;;;;;;37.11;38.15;100328.47;5050552;28;20033;-86
2022/08/23 09:17:02;;;;;;;21.88;5.15;;;;;;;35.32;42.73;100332.78;5025371;28;20033;-88
2022/08/23 09:19:28;;;;;;;27.08;5.93;;;;;;;37.05;39.62;100329.81;4999684;28;20041;-86
2022/08/23 09:22:03;;;;;;;25.48;6.00;;;;;;;37.70;38.66;100337.59;5012261;28;20393;-86
2022/08/23 09:24:33;;;;;;;21.73;4.72;;;;;;;37.39;39.03;100351.00;5004443;28;20049;-89
2022/08/23 09:26:58;;;;;;;23.77;5.13;;;;;;;37.42;38.91;100338.28;5046089;28;20142;-88
2022/08/23 09:29:29;;;;;;;20.58;4.82;;;;;;;38.21;37.47;100346.38;5000609;28;20037;-86
2022/08/23 09:32:01;;;;;;;20.38;4.70;;;;;;;38.29;36.87;100344.63;5032781;28;20037;-87
2022/08/23 09:34:36;;;;;;;21.15;4.55;;;;;;;37.20;39.16;100347.13;5016493;28;20513;-87
2022/08/23 09:37:44;;;;;;;22.80;4.20;;;;;;;38.72;36.43;100346.66;5053605;28;20029;-86
2022/08/23 09:40:52;;;;;;;20.90;4.90;;;;;;;39.54;34.37;100348.00;5036047;28;20481;-86
2022/08/23 09:43:25;;;;;;;27.60;5.20;;;;;;;40.79;32.13;100349.97;5046768;28;20033;-87
2022/08/23 09:52:40;;;;;;;22.42;4.88;;;;;;;44.05;27.43;100356.06;5045770;28;20056;-86
2022/08/23 09:55:11;;;;;;;21.27;4.68;;;;;;;42.81;28.66;100357.47;4986945;28;20073;-89
2022/08/23 09:57:38;;;;;;;26.88;5.55;;;;;;;42.25;28.28;100347.88;4997651;28;20129;-86
2022/08/23 10:00:23;;;;;;;19.42;5.10;;;;;;;42.24;28.56;100351.06;4998454;28;20052;-87
2022/08/23 10:02:56;;;;;;;20.55;4.70;;;;;;;43.18;27.17;100348.13;4996989;28;20034;-87
2022/08/23 10:05:38;;;;;;;21.08;5.00;;;;;;;42.52;27.98;100356.28;5028376;28;20041;-87
2022/08/23 10:08:03;;;;;;;27.60;4.30;;;;;;;42.55;27.92;100338.59;5016126;28;20037;-87
2022/08/23 10:10:45;;;;;;;23.00;4.35;;;;;;;41.37;30.20;100334.88;5014413;28;20064;-86
2022/08/23 10:13:11;;;;;;;18.67;4.72;;;;;;;40.90;31.38;100342.50;4997496;28;20037;-86
2022/08/23 10:15:58;;;;;;;18.10;4.47;;;;;;;40.30;32.11;100347.78;5028006;28;20037;-88
2022/08/23 10:18:33;;;;;;;16.38;4.60;;;;;;;39.89;33.42;100350.06;5058390;28;20042;-86
2022/08/23 10:21:11;;;;;;;23.80;4.57;;;;;;;41.26;30.56;100346.00;5031824;28;20382;-86
2022/08/23 10:23:52;;;;;;;24.73;4.72;;;;;;;39.77;32.74;100345.34;5025217;28;20029;-86
2022/08/23 10:26:30;;;;;;;17.58;4.32;;;;;;;41.55;30.03;100338.00;5033483;28;20416;-86
2022/08/23 10:32:13;;;;;;;19.20;4.15;;;;;;;41.57;30.06;100346.09;5043724;28;20071;-85
2022/08/23 10:34:57;;;;;;;20.08;4.45;;;;;;;41.97;29.84;100345.50;5046899;28;20487;-86
2022/08/23 10:37:51;;;;;;;25.63;4.47;;;;;;;41.52;29.78;100345.19;5049845;28;20481;-86
2022/08/23 10:40:42;;;;;;;18.35;4.47;;;;;;;41.05;31.21;100343.59;5019967;28;20054;-86
2022/08/23 10:43:44;;;;;;;21.08;4.47;;;;;;;41.74;30.64;100351.19;5055892;28;20096;-86
2022/08/23 10:46:11;;;;;;;18.65;4.15;;;;;;;40.68;31.15;100346.09;5048926;28;20135;-87
2022/08/23 10:48:55;;;;;;;16.67;4.15;;;;;;;38.90;34.63;100360.38;5029340;28;20029;-90
2022/08/23 10:51:37;;;;;;;20.40;4.65;;;;;;;38.80;34.88;100342.88;5034822;28;20496;-87
2022/08/23 10:54:14;;;;;;;17.65;4.43;;;;;;;38.64;35.27;100347.66;5017547;28;20056;-87
2022/08/23 10:56:40;;;;;;;18.02;4.43;;;;;;;39.34;34.30;100351.94;5028241;28;20086;-86
2022/08/23 10:59:24;;;;;;;18.92;4.40;;;;;;;38.49;35.53;100334.38;5033962;28;20045;-86
2022/08/23 11:02:27;;;;;;;16.90;4.10;;;;;;;36.88;38.48;100341.22;5038767;28;20041;-85
2022/08/23 11:05:06;;;;;;;20.13;4.43;;;;;;;37.57;37.71;100336.78;5044806;28;20088;-88
2022/08/23 11:07:36;;;;;;;16.38;4.30;;;;;;;37.45;35.75;100326.34;5049255;28;20048;-87
2022/08/23 11:10:35;;;;;;;16.88;4.60;;;;;;;37.54;37.41;100335.50;5037467;28;20041;-87
2022/08/23 11:13:09;;;;;;;17.08;4.35;;;;;;;37.43;37.59;100337.09;5070730;28;20068;-86
2022/08/23 11:15:44;;;;;;;19.02;4.65;;;;;;;35.59;41.33;100334.31;5053582;28;20045;-87
2022/08/23 11:18:28;;;;;;;13.30;4.78;;;;;;;35.88;40.61;100335.47;5032126;28;20052;-90
2022/08/23 11:20:58;;;;;;;20.35;4.65;;;;;;;33.85;45.78;100326.19;5035435;28;20045;-88
2022/08/23 11:23:47;;;;;;;16.65;4.72;;;;;;;31.76;51.28;100297.06;5033763;28;20097;-92
2022/08/23 11:26:26;;;;;;;19.75;5.53;;;;;;;31.24;54.01;100333.38;5053362;28;20064;-89
2022/08/23 11:29:19;;;;;;;18.42;5.57;;;;;;;30.62;56.51;100349.44;5037902;28;20041;-89
2022/08/23 11:32:04;;;;;;;19.58;5.70;;;;;;;30.20;58.60;100342.84;5066527;28;20045;-89
2022/08/23 11:34:57;;;;;;;17.65;6.10;;;;;;;30.44;57.12;100340.03;5074538;28;20065;-89
2022/08/23 11:37:28;;;;;;;21.70;5.77;;;;;;;30.71;56.25;100340.13;5045961;28;20037;-92
2022/08/23 11:39:57;;;;;;;16.55;5.45;;;;;;;30.25;57.38;100329.75;5054433;28;20566;-89
2022/08/23 11:42:47;;;;;;;14.43;5.10;;;;;;;29.80;58.11;100329.28;5066844;28;20051;-89
2022/08/23 11:45:45;;;;;;;21.23;6.30;;;;;;;29.70;57.92;100311.97;5061441;28;20186;-89
2022/08/23 11:48:21;;;;;;;24.35;5.72;;;;;;;30.42;56.17;100337.56;5030806;28;20063;-89
2022/08/23 11:50:53;;;;;;;16.67;4.80;;;;;;;30.43;54.77;100330.88;5050130;28;20047;-90
2022/08/23 11:53:45;;;;;;;24.48;5.03;;;;;;;31.10;53.25;100336.13;5055107;28;20033;-89
2022/08/23 11:56:29;;;;;;;17.63;5.30;;;;;;;31.46;52.95;100342.97;5043756;28;20132;-91
2022/08/23 11:58:54;;;;;;;;;;;;;;;31.55;52.86;100330.81;5063524;28;20075;-90
2022/08/23 12:01:47;;;;;;;19.93;5.20;;;;;;;30.95;53.40;100341.13;5044683;28;19913;-90
2022/08/23 12:04:28;;;;;;;20.23;5.53;;;;;;;31.12;53.68;100319.19;5023164;28;20295;-91
2022/08/23 12:07:01;;;;;;;21.08;5.15;;;;;;;31.27;53.20;100321.66;5062798;28;20045;-90
2022/08/23 12:09:34;;;;;;;20.33;5.22;;;;;;;31.45;53.01;100319.13;5045779;28;20037;-89
2022/08/23 12:12:00;;;;;;;20.27;4.85;;;;;;;31.53;51.55;100323.94;5071943;28;20048;-89
2022/08/23 12:14:41;;;;;;;19.92;4.82;;;;;;;31.37;53.21;100326.16;5065251;28;20044;-89
2022/08/23 12:17:24;;;;;;;22.17;5.15;;;;;;;31.06;54.43;100320.41;5055642;28;20065;-89
2022/08/23 12:19:52;;;;;;;19.65;5.25;;;;;;;31.12;54.70;100328.31;5066325;28;20098;-89
2022/08/23 12:22:25;;;;;;;20.58;5.50;;;;;;;31.81;52.86;100304.44;5031828;28;20460;-90
2022/08/23 12:24:58;;;;;;;24.13;4.80;;;;;;;32.22;51.33;100315.50;5054142;28;20048;-90
2022/08/23 12:27:49;;;;;;;16.50;5.00;;;;;;;32.17;52.16;100313.66;5051752;28;20044;-91
2022/08/23 12:30:37;;;;;;;17.23;4.93;;;;;;;31.51;53.45;100304.78;5034330;28;20048;-90
2022/08/23 12:33:50;;;;;;;16.23;4.70;;;;;;;30.57;55.81;100311.50;5053487;28;20492;-91
2022/08/23 12:36:54;;;;;;;21.35;5.18;;;;;;;30.49;56.50;100315.81;5056527;28;20140;-90
2022/08/23 12:39:33;;;;;;;22.40;5.43;;;;;;;30.72;56.16;100316.00;5039384;28;20049;-89
2022/08/23 12:42:14;;;;;;;16.17;5.40;;;;;;;31.04;55.48;100320.69;5043754;28;20069;-88
2022/08/23 12:44:41;;;;;;;19.00;5.95;;;;;;;30.87;56.06;100326.84;5044002;28;20552;-88
2022/08/23 12:47:17;;;;;;;19.15;5.10;;;;;;;30.69;56.97;100325.72;5044301;28;20474;-89
2022/08/23 12:50:07;;;;;;;18.30;5.20;;;;;;;30.79;56.70;100321.13;5034537;28;20052;-90
2022/08/23 12:52:33;;;;;;;24.08;5.38;;;;;;;30.96;56.70;100318.63;5022240;28;20037;-89
2022/08/23 12:54:59;;;;;;;22.35;5.15;;;;;;;30.92;56.67;100300.94;5017840;28;20033;-89
2022/08/23 12:57:35;;;;;;;21.05;5.13;;;;;;;30.50;57.96;100322.19;5044735;28;20432;-89
2022/08/23 13:00:13;;;;;;;24.20;5.82;;;;;;;30.37;58.77;100331.25;5041429;28;20048;-89
2022/08/23 13:02:40;;;;;;;22.95;5.22;;;;;;;29.89;59.90;100312.81;5043985;28;20029;-89
2022/08/23 13:05:13;;;;;;;34.67;6.07;;;;;;;29.89;61.19;100332.22;5025770;28;20099;-90
2022/08/23 13:07:45;;;;;;;30.13;6.57;;;;;;;30.20;59.77;100324.25;5042761;28;20040;-89
2022/08/23 13:10:13;;;;;;;27.50;5.43;;;;;;;30.42;58.85;100331.19;5075331;28;20072;-89
2022/08/23 13:12:38;;;;;;;34.78;5.70;;;;;;;30.52;57.80;100319.94;5014586;28;20041;-89
2022/08/23 13:15:05;;;;;;;23.38;5.20;;;;;;;30.37;58.41;100311.84;5023118;28;20049;-90
2022/08/23 13:17:32;;;;;;;29.00;5.97;;;;;;;30.06;60.21;100324.22;5029712;28;20052;-90
2022/08/23 13:20:00;;;;;;;24.85;5.43;;;;;;;30.22;59.55;100310.94;5034526;28;20124;-90
2022/08/23 13:22:26;;;;;;;20.58;5.13;;;;;;;30.23;58.81;100306.22;5040212;28;20041;-89
2022/08/23 13:25:04;;;;;;;25.75;5.70;;;;;;;30.14;58.89;100299.72;5016913;28;20053;-89
2022/08/23 13:27:34;;;;;;;22.80;5.88;;;;;;;30.07;58.88;100311.19;5016467;28;20128;-90
2022/08/23 13:30:09;;;;;;;31.60;5.90;;;;;;;29.81;59.85;100310.72;5017800;28;20120;-90
2022/08/23 13:32:50;;;;;;;29.48;5.35;;;;;;;29.41;60.52;100307.34;5038867;28;20067;-89
2022/08/23 13:35:27;;;;;;;29.05;5.50;;;;;;;29.20;61.47;100304.78;5041837;28;20422;-90
2022/08/23 13:37:59;;;;;;;22.95;5.63;;;;;;;29.16;61.81;100306.50;5053985;28;20110;-92
2022/08/23 13:40:30;;;;;;;24.75;5.63;;;;;;;29.48;60.87;100301.41;5021432;28;20093;-91
2022/08/23 13:43:04;;;;;;;30.50;6.20;;;;;;;29.58;60.05;100299.34;5018981;28;20151;-90
2022/08/23 13:45:34;;;;;;;24.98;5.38;;;;;;;29.48;59.63;100293.94;5025283;28;20037;-89
2022/08/23 13:48:09;;;;;;;28.45;5.90;;;;;;;29.11;61.23;100298.25;5004651;28;20045;-89
2022/08/23 13:50:35;;;;;;;31.00;5.85;;;;;;;29.07;61.31;100299.09;5000143;28;20033;-92
2022/08/23 13:53:03;;;;;;;28.60;5.32;;;;;;;29.16;61.50;100297.38;5030844;28;20083;-91
2022/08/23 13:55:29;;;;;;;34.22;6.25;;;;;;;29.25;61.59;100303.91;5005669;28;20032;-90
2022/08/23 13:57:55;;;;;;;22.45;5.55;;;;;;;29.06;60.66;100303.81;5038754;28;20255;-89
2022/08/23 14:00:24;;;;;;;30.98;5.75;;;;;;;29.31;60.59;100297.19;5021295;28;20077;-91
2022/08/23 14:02:50;;;;;;;34.35;5.38;;;;;;;29.48;60.10;100305.03;5017885;28;20041;-91
2022/08/23 14:05:18;;;;;;;30.77;6.22;;;;;;;29.62;59.70;100294.88;5015731;28;20077;-91
2022/08/23 14:07:46;;;;;;;37.28;6.05;;;;;;;29.83;59.66;100306.53;5051204;28;20040;-91
2022/08/23 14:10:12;;;;;;;28.90;5.50;;;;;;;29.67;60.39;100300.38;5005088;28;20484;-88
2022/08/23 14:12:37;;;;;;;27.80;6.13;;;;;;;29.56;60.95;100306.31;5011286;28;20076;-89
2022/08/23 14:15:04;;;;;;;30.25;6.40;;;;;;;29.64;61.23;100323.09;5029807;28;20140;-89
2022/08/23 14:17:33;;;;;;;37.53;7.00;;;;;;;29.13;62.28;100301.56;4995692;28;20524;-89
2022/08/23 14:20:00;;;;;;;45.92;7.03;;;;;;;29.17;62.49;100315.63;5013421;28;20047;-91
2022/08/23 14:22:34;;;;;;;31.05;6.03;;;;;;;29.36;61.19;100305.44;5030915;28;20071;-91
2022/08/23 14:25:03;;;;;;;32.00;5.57;;;;;;;29.40;61.05;100306.47;5027485;28;20045;-90
2022/08/23 14:27:28;;;;;;;35.25;5.60;;;;;;;29.32;60.76;100303.56;5047904;28;20037;-90
2022/08/23 14:29:57;;;;;;;35.05;5.97;;;;;;;29.51;59.69;100298.88;5010186;28;20095;-89
2022/08/23 14:32:22;;;;;;;45.42;5.82;;;;;;;29.07;60.81;100277.81;5031084;28;20037;-90
2022/08/23 14:34:48;;;;;;;43.97;5.97;;;;;;;29.01;61.31;100277.03;5014875;28;20117;-88
2022/08/23 14:37:14;;;;;;;38.65;6.70;;;;;;;28.83;61.93;100281.34;5015687;28;20513;-91
2022/08/23 14:39:39;;;;;;;41.22;6.57;;;;;;;28.83;62.58;100297.13;5019986;28;20056;-89
2022/08/23 14:42:11;;;;;;;53.28;6.38;;;;;;;28.55;64.05;100293.25;5042116;28;20086;-90
2022/08/23 14:44:39;;;;;;;42.25;6.55;;;;;;;28.71;63.69;100285.66;5016683;28;20560;-90
2022/08/23 14:47:05;;;;;;;51.15;6.50;;;;;;;28.52;64.18;100291.88;5038010;28;20041;-90
2022/08/23 14:49:31;;;;;;;40.60;5.95;;;;;;;28.76;63.88;100291.94;5023218;28;20049;-90
2022/08/23 14:51:56;;;;;;;51.80;6.45;;;;;;;28.77;62.90;100296.34;5037366;28;20044;-90
2022/08/23 14:54:25;;;;;;;56.33;7.30;;;;;;;28.87;62.34;100275.22;5005900;28;20037;-90
2022/08/23 14:56:51;;;;;;;53.30;6.90;;;;;;;28.85;62.65;100305.16;5034505;28;20044;-90
2022/08/23 14:59:16;;;;;;;51.60;6.45;;;;;;;28.87;62.67;100292.66;5026694;28;20128;-90
2022/08/23 15:01:42;;;;;;;46.20;6.40;;;;;;;29.06;62.27;100301.06;5050559;28;20033;-89
2022/08/23 15:04:07;;;;;;;53.40;7.50;;;;;;;29.24;61.81;100308.63;5018537;28;20094;-88
2022/08/23 15:06:34;;;;;;;57.58;6.95;;;;;;;29.36;61.13;100299.91;5013076;28;20033;-90
2022/08/23 15:09:00;;;;;;;59.78;7.75;;;;;;;29.53;60.65;100296.66;5034556;28;20398;-90
2022/08/23 15:11:25;;;;;;;61.08;7.10;;;;;;;29.49;61.19;100314.97;5013639;28;20056;-90
2022/08/23 15:13:51;;;;;;;70.03;7.13;;;;;;;29.21;61.47;100286.25;5036367;28;20029;-90
2022/08/23 15:16:18;;;;;;;63.72;6.65;;;;;;;29.15;62.08;100293.78;5056289;28;20036;-90
2022/08/23 15:18:45;;;;;;;53.47;7.00;;;;;;;28.71;63.53;100311.34;5067947;28;20052;-89
2022/08/23 15:21:11;;;;;;;64.20;6.80;;;;;;;28.51;63.98;100317.88;5036108;28;20128;-90
2022/08/23 15:23:45;;;;;;;67.72;7.18;;;;;;;28.28;63.38;100297.28;5071562;28;20068;-90
2022/08/23 15:26:11;;;;;;;65.50;7.28;;;;;;;28.34;62.90;100293.38;5038454;28;20455;-90
2022/08/23 15:28:39;;;;;;;71.13;7.80;;;;;;;28.54;62.49;100283.28;5038156;28;20097;-90
2022/08/23 15:31:05;;;;;;;75.60;7.45;;;;;;;28.46;62.61;100281.13;5027146;28;20036;-89
2022/08/23 15:33:33;;;;;;;82.18;7.97;;;;;;;28.52;62.84;100291.06;5048502;28;20040;-89
2022/08/23 15:36:00;;;;;;;69.00;7.65;;;;;;;28.38;64.03;100294.47;5038020;28;20037;-90
2022/08/23 15:38:29;;;;;;;77.00;8.15;;;;;;;28.36;63.99;100288.38;5055456;28;20106;-89
2022/08/23 15:40:54;;;;;;;73.90;8.77;;;;;;;28.33;64.35;100280.69;5020890;28;20045;-90
2022/08/23 15:43:23;;;;;;;85.85;7.57;;;;;;;28.02;65.43;100274.53;5030354;28;20562;-89
2022/08/23 15:45:52;;;;;;;89.82;8.20;;;;;;;28.19;64.33;100260.34;5057278;28;20048;-90
2022/08/23 15:48:26;;;;;;;81.63;8.90;;;;;;;28.01;64.85;100264.59;5040486;28;20059;-89
2022/08/23 15:51:00;;;;;;;81.38;8.40;;;;;;;28.06;64.74;100267.34;5031250;28;20032;-89
2022/08/23 15:53:28;;;;;;;86.22;8.32;;;;;;;27.97;64.42;100275.41;5039021;28;20085;-90
2022/08/23 15:55:55;;;;;;;84.90;7.82;;;;;;;27.74;65.16;100287.09;5023856;28;20158;-95
2022/08/23 15:58:27;;;;;;;82.18;8.15;;;;;;;27.69;65.34;100290.72;5053692;28;20095;-93
2022/08/23 16:00:56;;;;;;;79.00;8.43;;;;;;;27.75;64.66;100278.53;5032818;28;20041;-93
2022/08/23 16:03:28;;;;;;;86.97;7.70;;;;;;;27.77;65.05;100286.56;5055015;28;20041;-92
2022/08/23 16:05:55;;;;;;;80.53;9.10;;;;;;;27.73;65.20;100289.06;5057123;28;20025;-90
2022/08/23 16:08:28;;;;;;;77.78;7.63;;;;;;;27.89;64.94;100289.81;5080012;28;20044;-92
2022/08/23 16:11:10;;;;;;;77.10;8.10;;;;;;;27.91;64.15;100273.78;5058634;28;20045;-92
2022/08/23 16:14:41;;;;;;;76.93;7.57;;;;;;;27.97;63.90;100267.09;5185666;23;20123;-96
2022/08/23 16:18:12;;;;;;;69.07;7.63;;;;;;;27.79;64.17;100260.31;5141692;22;20074;-95
2022/08/23 17:55:35;;;;;;;39.83;6.55;;;;;;;26.26;71.48;100407.50;5003253;28;20167;-95
2022/08/23 17:58:03;;;;;;;37.33;6.78;;;;;;;26.18;71.94;100388.78;4972059;28;20088;-89
2022/08/23 18:00:31;;;;;;;49.88;6.57;;;;;;;26.27;72.06;100398.16;4986761;28;20038;-89
2022/08/23 18:02:57;;;;;;;42.90;6.80;;;;;;;26.21;71.93;100390.97;4970056;28;20042;-89
2022/08/23 18:05:24;;;;;;;38.95;6.85;;;;;;;26.17;71.89;100380.78;5000767;28;20046;-93
2022/08/23 18:07:49;;;;;;;40.33;6.15;;;;;;;26.24;72.31;100393.19;4970265;28;20042;-89
2022/08/23 18:10:14;;;;;;;53.35;7.55;;;;;;;26.17;72.25;100373.31;4973537;28;20050;-90
2022/08/23 18:12:42;;;;;;;48.55;6.82;;;;;;;26.20;72.67;100380.22;4994744;28;20498;-90
2022/08/23 18:15:09;;;;;;;40.75;6.88;;;;;;;26.17;72.33;100378.00;4992538;28;20521;-92
2022/08/23 18:17:35;;;;;;;41.58;6.28;;;;;;;26.10;71.71;100392.03;4958346;28;20039;-92
2022/08/23 18:20:08;;;;;;;53.13;6.82;;;;;;;26.00;71.15;100395.59;4965050;28;20078;-91
2022/08/23 18:22:34;;;;;;;37.78;5.85;;;;;;;26.06;71.03;100416.56;5005214;28;20049;-89